Time;durP1;ratioP1;P1;durP2;ratioP2;P2;SDS_P1;SDS_P2;PMS_P1;PMS_P2;Temp;Humidity;BMP_temperature;BMP_pressure;BME280_temperature;BME280_humidity;BME280_pressure;Samples;Min_cycle;Max_cycle;Signal;HPM_P1;HPM_P2
2022/09/05 00:00:16;;;;;;;;;2.50;2.50;;;;;23.34;55.35;101055.72;5093521;27;45481;-82
2022/09/05 00:03:02;;;;;;;;;2.00;2.00;;;;;23.37;56.06;101104.88;5109716;27;45293;-82
2022/09/05 00:05:52;;;;;;;;;2.50;2.50;;;;;23.35;55.56;101093.28;5109378;27;45041;-81
2022/09/05 00:08:22;;;;;;;;;2.00;2.00;;;;;23.19;56.23;101086.31;5093812;28;45425;-81
2022/09/05 00:11:23;;;;;;;;;2.00;2.00;;;;;23.28;55.60;101086.19;5091154;27;45583;-82
2022/09/05 00:13:56;;;;;;;;;2.00;2.00;;;;;23.26;56.08;101098.75;5093177;27;45245;-82
2022/09/05 00:16:30;;;;;;;;;2.00;2.00;;;;;23.27;55.73;101091.59;5093210;27;45112;-82
2022/09/05 00:19:22;;;;;;;;;1.25;1.25;;;;;23.13;56.25;101065.81;5093724;27;45512;-82
2022/09/05 00:21:50;;;;;;;;;2.00;2.00;;;;;23.21;55.78;101068.41;5093471;28;45248;-82
2022/09/05 00:24:53;;;;;;;;;2.00;2.00;;;;;23.16;56.14;101062.22;5109241;27;44950;-82
2022/09/05 00:27:39;;;;;;;;;2.00;2.00;;;;;23.04;55.86;101055.19;5091263;27;44972;-82
2022/09/05 00:30:12;;;;;;;;;2.75;2.00;;;;;23.09;55.97;101063.19;5093217;27;45552;-82
2022/09/05 00:32:58;;;;;;;;;4.00;2.75;;;;;23.01;56.11;101057.94;5093549;27;45814;-82
2022/09/05 00:35:40;;;;;;;;;2.00;2.00;;;;;22.93;56.03;101043.72;5093300;27;45086;-83
2022/09/05 00:38:15;;;;;;;;;1.25;1.00;;;;;23.06;56.29;101049.84;5108715;27;44988;-83
2022/09/05 00:40:46;;;;;;;;;2.00;2.00;;;;;22.90;56.25;101044.63;5091680;27;45354;-83
2022/09/05 00:43:20;;;;;;;;;2.25;2.25;;;;;22.93;56.83;101054.44;5093456;27;45016;-82
2022/09/05 00:46:09;;;;;;;;;3.25;3.25;;;;;22.74;56.88;101026.03;5091486;27;45117;-82
2022/09/05 00:48:57;;;;;;;;;2.75;2.75;;;;;22.80;56.99;101048.28;5092764;28;45573;-82
2022/09/05 00:51:43;;;;;;;;;3.00;3.00;;;;;22.72;56.84;101049.28;5093238;27;45044;-82
2022/09/05 00:54:14;;;;;;;;;3.00;3.00;;;;;22.82;56.78;101064.38;5091345;27;45077;-82
2022/09/05 00:57:16;;;;;;;;;3.00;3.00;;;;;22.90;56.89;101057.13;5091638;27;45037;-83
2022/09/05 01:00:00;;;;;;;;;2.75;2.75;;;;;22.78;56.53;101015.25;5093557;27;45078;-83
2022/09/05 01:02:40;;;;;;;;;2.00;2.00;;;;;23.01;57.10;101041.84;5091977;27;45454;-84
2022/09/05 01:05:36;;;;;;;;;3.25;3.00;;;;;23.04;56.87;101040.91;5092114;28;45815;-83
2022/09/05 01:08:27;;;;;;;;;2.00;2.00;;;;;23.07;57.24;101030.16;5108630;27;44979;-82
2022/09/05 01:11:27;;;;;;;;;2.50;2.50;;;;;22.98;57.26;101017.75;5091289;27;45101;-82
2022/09/05 01:14:30;;;;;;;;;3.00;3.00;;;;;23.08;57.24;101051.56;5090996;28;48196;-82
2022/09/05 01:17:20;;;;;;;;;3.00;2.00;;;;;23.11;56.60;101064.97;5091624;27;45034;-82
2022/09/05 01:20:03;;;;;;;;;4.00;3.00;;;;;23.16;56.05;101086.34;5091255;27;45068;-82
2022/09/05 01:22:34;;;;;;;;;3.50;3.50;;;;;23.20;56.09;101077.34;5092885;27;44959;-82
2022/09/05 01:25:25;;;;;;;;;2.75;2.75;;;;;23.23;56.56;101073.75;5107687;27;47335;-81
2022/09/05 01:28:03;;;;;;;;;4.25;4.25;;;;;23.20;57.35;101045.16;5091285;27;45416;-82
2022/09/05 01:30:39;;;;;;;;;3.25;3.25;;;;;23.20;59.49;101020.13;5092953;28;44942;-82
2022/09/05 01:33:25;;;;;;;;;4.25;4.00;;;;;23.12;60.20;101022.94;5092192;27;45090;-81
2022/09/05 01:36:09;;;;;;;;;4.00;4.00;;;;;23.03;60.90;101031.97;5091632;28;44991;-82
2022/09/05 01:39:11;;;;;;;;;3.00;3.00;;;;;22.94;61.68;101029.41;5090028;27;45307;-81
2022/09/05 01:41:45;;;;;;;;;5.50;5.25;;;;;22.83;62.52;101029.50;5091613;28;45389;-82
2022/09/05 01:44:38;;;;;;;;;3.00;3.00;;;;;22.62;62.52;101003.81;5091741;27;45137;-82
2022/09/05 01:47:31;;;;;;;;;4.00;3.75;;;;;22.64;62.83;101047.56;5090047;28;46140;-81
2022/09/05 01:50:20;;;;;;;;;5.00;4.00;;;;;22.49;62.92;101039.69;5092195;27;45405;-81
2022/09/05 01:53:09;;;;;;;;;3.75;3.75;;;;;22.47;63.39;101041.50;5092533;27;45284;-82
2022/09/05 01:56:02;;;;;;;;;3.25;3.00;;;;;22.43;63.38;101049.56;5090618;28;45312;-82
2022/09/05 01:59:08;;;;;;;;;3.75;3.75;;;;;22.18;64.09;101017.66;5091977;27;44996;-82
2022/09/05 02:01:54;;;;;;;;;3.75;3.00;;;;;22.27;63.78;101039.00;5090621;27;45222;-81
2022/09/05 02:04:37;;;;;;;;;3.00;3.00;;;;;22.20;64.60;101050.66;5107583;27;45624;-82
2022/09/05 02:07:12;;;;;;;;;5.00;4.00;;;;;22.15;64.58;101052.47;5091268;27;44918;-82
2022/09/05 02:10:05;;;;;;;;;4.00;4.00;;;;;21.98;63.91;101032.97;5091458;27;45201;-81
2022/09/05 02:12:41;;;;;;;;;4.00;4.00;;;;;22.11;63.86;101058.75;5088940;27;45524;-81
2022/09/05 02:15:15;;;;;;;;;5.00;4.00;;;;;22.09;64.07;101064.09;5091932;28;45087;-81
2022/09/05 02:17:40;;;;;;;;;2.00;2.00;;;;;22.08;64.85;101069.47;5091544;27;44988;-82
2022/09/05 02:20:18;;;;;;;;;3.33;3.33;;;;;22.10;65.86;101068.53;5091466;27;52942;-82
2022/09/05 02:22:50;;;;;;;;;5.25;5.00;;;;;22.06;66.60;101072.13;5091740;27;45083;-81
2022/09/05 02:25:28;;;;;;;;;3.00;3.00;;;;;22.02;67.03;101066.81;5091629;27;45314;-82
2022/09/05 02:28:04;;;;;;;;;5.00;4.00;;;;;21.98;67.07;101068.66;5091606;28;44949;-82
2022/09/05 02:30:37;;;;;;;;;4.00;4.00;;;;;21.93;67.45;101059.75;5091127;28;45695;-82
2022/09/05 02:33:29;;;;;;;;;2.75;2.75;;;;;21.77;67.60;101036.66;5091690;28;45374;-82
2022/09/05 02:36:12;;;;;;;;;3.75;3.75;;;;;21.69;67.23;101027.81;5106836;27;45103;-81
2022/09/05 02:38:53;;;;;;;;;4.00;4.00;;;;;21.77;67.09;101052.72;5090930;27;45880;-81
2022/09/05 02:41:26;;;;;;;;;3.75;3.00;;;;;21.71;67.37;101050.09;5088974;27;45171;-82
2022/09/05 02:43:59;;;;;;;;;3.75;3.25;;;;;21.66;66.82;101049.22;5091600;27;45643;-82
2022/09/05 02:46:47;;;;;;;;;5.75;4.00;;;;;21.50;68.26;101033.25;5089582;28;45174;-82
2022/09/05 02:49:21;;;;;;;;;5.00;5.00;;;;;21.53;67.57;101060.00;5107136;27;44989;-82
2022/09/05 02:52:09;;;;;;;;;4.50;3.75;;;;;21.56;67.27;101070.66;5090304;27;45576;-82
2022/09/05 02:54:43;;;;;;;;;4.00;4.00;;;;;21.52;67.99;101066.22;5092820;27;45404;-82
2022/09/05 02:57:32;;;;;;;;;5.75;5.75;;;;;21.50;67.62;101061.81;5092385;28;45260;-82
2022/09/05 03:00:15;;;;;;;;;5.25;4.25;;;;;21.48;68.32;101066.28;5094912;28;45104;-82
2022/09/05 03:03:20;;;;;;;;;4.75;4.50;;;;;21.44;67.73;101062.72;5094577;27;45718;-82
2022/09/05 03:06:04;;;;;;;;;5.00;3.50;;;;;21.32;68.38;101055.63;5095201;27;45683;-82
2022/09/05 03:08:32;;;;;;;;;5.00;5.00;;;;;21.36;68.46;101067.22;5094722;27;44994;-82
2022/09/05 03:11:25;;;;;;;;;3.75;3.75;;;;;21.34;68.56;101077.91;5093706;27;45412;-83
2022/09/05 03:14:20;;;;;;;;;10.50;9.75;;;;;21.35;68.87;101071.69;5094484;28;45457;-82
2022/09/05 03:17:09;;;;;;;;;52.50;42.50;;;;;21.33;68.95;101067.25;5092016;27;45353;-82
2022/09/05 03:20:17;;;;;;;;;37.50;33.25;;;;;21.29;68.78;101065.44;5094668;27;45124;-82
2022/09/05 03:23:00;;;;;;;;;22.00;20.00;;;;;21.41;69.44;101085.91;5094615;27;45048;-82
2022/09/05 03:26:04;;;;;;;;;24.50;22.00;;;;;21.42;69.08;101088.56;5093325;27;46410;-82
2022/09/05 03:29:05;;;;;;;;;30.75;27.75;;;;;21.36;69.65;101072.56;5094144;27;45220;-82
2022/09/05 03:32:03;;;;;;;;;25.50;22.75;;;;;21.44;70.14;101080.56;5108638;27;45135;-83
2022/09/05 03:34:47;;;;;;;;;28.00;27.00;;;;;21.40;70.45;101074.31;5094866;28;45155;-83
2022/09/05 03:37:37;;;;;;;;;25.00;23.50;;;;;21.37;70.78;101085.03;5109145;27;46397;-82
2022/09/05 03:40:12;;;;;;;;;13.25;12.25;;;;;21.35;70.78;101089.50;5093720;27;45667;-83
2022/09/05 03:42:59;;;;;;;;;15.00;15.00;;;;;21.34;70.54;101090.41;5092331;27;44979;-81
2022/09/05 03:45:45;;;;;;;;;11.25;9.75;;;;;21.31;70.73;101080.59;5094113;27;45040;-81
2022/09/05 03:48:31;;;;;;;;;11.00;10.00;;;;;21.29;71.12;101085.03;5094043;27;45673;-81
2022/09/05 03:51:24;;;;;;;;;10.25;9.00;;;;;21.26;70.99;101073.47;5093243;27;45498;-81
2022/09/05 03:54:08;;;;;;;;;11.00;9.00;;;;;21.20;71.17;101076.16;5094030;28;45172;-82
2022/09/05 03:57:01;;;;;;;;;8.25;7.50;;;;;21.12;71.54;101073.50;5093450;27;45071;-82
2022/09/05 03:59:35;;;;;;;;;9.25;7.50;;;;;21.07;71.65;101069.97;5093806;28;45479;-81
2022/09/05 04:02:05;;;;;;;;;9.00;8.00;;;;;21.04;71.52;101070.88;5109394;27;45564;-81
2022/09/05 04:04:41;;;;;;;;;6.50;5.75;;;;;20.99;71.51;101066.44;5093833;27;45020;-81
2022/09/05 04:07:23;;;;;;;;;9.75;8.25;;;;;20.89;72.10;101057.56;5092944;27;48224;-82
2022/09/05 04:10:24;;;;;;;;;6.50;6.50;;;;;20.97;72.11;101085.13;5092872;27;46052;-82
2022/09/05 04:13:13;;;;;;;;;5.25;5.00;;;;;20.97;72.48;101074.44;5093260;27;45062;-81
2022/09/05 04:15:45;;;;;;;;;7.00;7.00;;;;;20.95;72.25;101080.69;5093376;27;45086;-81
2022/09/05 04:18:23;;;;;;;;;5.75;5.75;;;;;20.94;72.12;101079.81;5093455;27;45089;-81
2022/09/05 04:20:54;;;;;;;;;5.00;5.00;;;;;20.99;72.08;101082.47;5093264;28;45148;-82
2022/09/05 04:23:59;;;;;;;;;7.25;6.75;;;;;20.98;71.73;101075.31;5092941;28;45303;-81
2022/09/05 04:27:02;;;;;;;;;6.75;6.00;;;;;20.95;72.06;101080.69;5092578;28;44998;-81
2022/09/05 04:29:46;;;;;;;;;5.00;5.00;;;;;20.89;72.28;101081.63;5093414;27;45012;-81
2022/09/05 04:32:47;;;;;;;;;6.00;5.75;;;;;20.76;72.35;101070.06;5108922;27;46831;-82
2022/09/05 04:35:21;;;;;;;;;6.25;6.25;;;;;20.80;72.37;101092.31;5093043;27;45125;-81
2022/09/05 04:37:57;;;;;;;;;7.25;7.25;;;;;20.76;72.65;101090.53;5093017;28;44983;-81
2022/09/05 04:40:46;;;;;;;;;5.00;4.25;;;;;20.75;72.77;101102.13;5091826;28;45099;-82
2022/09/05 04:43:23;;;;;;;;;7.75;7.00;;;;;20.64;72.59;101098.53;5093136;27;45179;-82
2022/09/05 04:46:21;;;;;;;;;4.00;4.00;;;;;20.54;73.13;101081.63;5091893;28;45711;-82
2022/09/05 04:49:04;;;;;;;;;7.25;7.25;;;;;20.67;72.76;101106.56;5092677;27;45022;-82
2022/09/05 04:51:49;;;;;;;;;6.25;6.25;;;;;20.63;73.13;101111.00;5091871;28;45111;-82
2022/09/05 04:54:14;;;;;;;;;5.00;5.00;;;;;20.64;73.10;101111.91;5093010;28;45848;-83
2022/09/05 04:56:44;;;;;;;;;6.00;6.00;;;;;20.63;73.09;101116.34;5090844;27;45009;-82
2022/09/05 04:59:21;;;;;;;;;8.00;6.75;;;;;20.53;73.23;101096.78;5108167;27;45091;-82
2022/09/05 05:01:57;;;;;;;;;6.00;6.00;;;;;20.59;73.36;101098.53;5093055;27;45164;-82
2022/09/05 05:04:24;;;;;;;;;5.50;5.50;;;;;20.56;73.08;101107.47;5092829;28;46263;-83
2022/09/05 05:06:58;;;;;;;;;8.25;7.00;;;;;20.47;72.63;101087.88;5092292;27;45107;-83
2022/09/05 05:09:31;;;;;;;;;7.00;7.00;;;;;20.48;73.21;101095.00;5093051;27;45007;-83
2022/09/05 05:12:02;;;;;;;;;5.00;5.00;;;;;20.45;73.21;101101.22;5091370;28;45285;-82
2022/09/05 05:14:41;;;;;;;;;7.50;6.25;;;;;20.35;72.96;101086.97;5093087;27;45780;-83
2022/09/05 05:17:15;;;;;;;;;7.00;6.00;;;;;20.29;73.77;101084.28;5091488;27;45436;-82
2022/09/05 05:19:46;;;;;;;;;6.75;6.00;;;;;20.39;73.84;101110.97;5092545;27;44968;-83
2022/09/05 05:22:14;;;;;;;;;6.00;6.00;;;;;20.44;74.00;101119.88;5092121;27;45320;-82
2022/09/05 05:24:51;;;;;;;;;5.00;4.75;;;;;20.45;73.66;101119.03;5090280;28;47782;-82
2022/09/05 05:27:30;;;;;;;;;6.00;5.75;;;;;20.36;73.75;101099.44;5091274;27;45861;-82
2022/09/05 05:30:07;;;;;;;;;7.75;7.75;;;;;20.26;73.83;101084.31;5092831;27;45294;-82
2022/09/05 05:32:42;;;;;;;;;4.00;4.00;;;;;20.32;74.07;101104.75;5092040;28;45052;-82
2022/09/05 05:35:13;;;;;;;;;8.00;7.00;;;;;20.24;74.17;101093.19;5092143;28;45121;-83
2022/09/05 05:37:51;;;;;;;;;4.50;4.50;;;;;20.19;74.15;101089.63;5092148;27;45493;-83
2022/09/05 05:40:24;;;;;;;;;8.00;7.75;;;;;20.26;74.55;101104.78;5091563;27;45229;-83
2022/09/05 05:42:50;;;;;;;;;5.75;5.25;;;;;20.32;74.74;101119.00;5092392;27;44985;-83
2022/09/05 05:45:23;;;;;;;;;8.00;7.00;;;;;20.43;74.84;101126.13;5091298;27;45372;-82
2022/09/05 05:48:03;;;;;;;;;7.00;7.00;;;;;20.41;74.37;101114.56;5091894;27;45609;-83
2022/09/05 05:50:44;;;;;;;;;6.75;6.75;;;;;20.46;74.96;101126.13;5092221;28;45041;-83
2022/09/05 05:53:45;;;;;;;;;7.00;6.75;;;;;20.48;75.10;101124.38;5091708;28;45017;-83
2022/09/05 05:56:39;;;;;;;;;7.00;6.75;;;;;20.50;74.93;101135.97;5091481;27;44985;-82
2022/09/05 05:59:33;;;;;;;;;8.00;7.00;;;;;20.53;75.31;101130.59;5092004;28;45439;-83
2022/09/05 06:02:06;;;;;;;;;8.25;7.00;;;;;20.57;75.30;101151.09;5091958;28;44903;-83
2022/09/05 06:04:53;;;;;;;;;6.50;5.75;;;;;20.59;75.17;101152.88;5092010;27;44921;-84
2022/09/05 06:07:45;;;;;;;;;8.25;7.50;;;;;20.62;75.49;101160.00;5091900;27;45782;-83
2022/09/05 06:10:20;;;;;;;;;8.00;8.00;;;;;20.64;75.43;101165.31;5091703;28;45275;-83
2022/09/05 06:13:23;;;;;;;;;9.00;9.00;;;;;20.66;75.67;101161.78;5091953;27;44893;-83
2022/09/05 06:16:00;;;;;;;;;9.00;9.00;;;;;20.71;75.61;101169.78;5091821;27;45187;-82
2022/09/05 06:18:32;;;;;;;;;9.00;8.50;;;;;20.75;75.25;101164.44;5091634;27;45261;-82
2022/09/05 06:21:34;;;;;;;;;10.75;10.00;;;;;20.79;75.63;101176.03;5091724;27;45632;-82
2022/09/05 06:24:11;;;;;;;;;12.00;11.00;;;;;20.83;75.96;101167.09;5091675;28;44988;-82
2022/09/05 06:27:05;;;;;;;;;7.00;7.00;;;;;20.91;75.33;101184.03;5090606;27;44944;-82
2022/09/05 06:29:36;;;;;;;;;8.00;8.00;;;;;20.97;74.59;101202.72;5090934;27;45792;-82
2022/09/05 06:32:25;;;;;;;;;11.25;10.00;;;;;21.04;75.32;101196.50;5091591;27;45143;-82
2022/09/05 06:35:30;;;;;;;;;7.75;7.25;;;;;21.12;74.39;101202.69;5091258;27;45004;-82
2022/09/05 06:39:00;;;;;;;;;5.00;5.00;;;;;21.24;73.43;101212.50;5091229;28;45019;-82
2022/09/05 06:41:37;;;;;;;;;7.00;7.00;;;;;21.37;73.18;101224.06;5084461;28;45517;-82
2022/09/05 06:44:21;;;;;;;;;10.25;10.00;;;;;21.50;73.15;101224.94;5089068;28;45773;-82
2022/09/05 06:46:54;;;;;;;;;10.25;10.25;;;;;21.69;72.67;101236.50;5091050;27;45024;-82
2022/09/05 06:49:48;;;;;;;;;9.00;9.00;;;;;21.92;73.22;101260.47;5091234;27;45044;-82
2022/09/05 06:52:51;;;;;;;;;11.25;10.75;;;;;22.08;72.43;101275.59;5089747;27;45745;-82
2022/09/05 06:55:41;;;;;;;;;9.00;8.25;;;;;22.28;71.83;101259.47;5089097;27;45193;-82
2022/09/05 06:58:32;;;;;;;;;10.00;9.75;;;;;22.28;71.00;101219.31;5091785;27;45278;-82
2022/09/05 07:01:00;;;;;;;;;7.50;6.75;;;;;22.53;71.15;101238.78;5086614;28;45230;-82
2022/09/05 07:03:46;;;;;;;;;8.50;7.50;;;;;22.59;70.21;101244.09;5091064;27;45001;-82
2022/09/05 07:06:30;;;;;;;;;7.25;7.00;;;;;22.64;69.11;101261.03;5091475;27;45683;-82
2022/09/05 07:09:05;;;;;;;;;6.50;6.50;;;;;22.64;69.19;101248.50;5091074;27;45164;-82
2022/09/05 07:11:49;;;;;;;;;8.75;7.50;;;;;22.65;68.08;101252.97;5090929;27;45134;-82
2022/09/05 07:14:31;;;;;;;;;6.25;6.25;;;;;22.56;67.85;101242.34;5090906;28;45375;-82
2022/09/05 07:17:10;;;;;;;;;6.50;6.00;;;;;22.50;67.54;101238.78;5088269;28;45449;-82
2022/09/05 07:19:56;;;;;;;;;5.00;5.00;;;;;22.53;67.79;101242.34;5090693;27;45104;-82
2022/09/05 07:22:44;;;;;;;;;6.25;6.25;;;;;22.62;67.92;101254.81;5090988;27;45030;-82
2022/09/05 07:25:14;;;;;;;;;6.00;6.00;;;;;22.58;67.46;101237.84;5106134;27;46298;-82
2022/09/05 07:27:55;;;;;;;;;6.25;6.25;;;;;22.69;67.39;101251.16;5088635;28;45666;-82
2022/09/05 07:30:20;;;;;;;;;8.00;6.00;;;;;22.70;66.96;101244.91;5090717;28;45020;-82
2022/09/05 07:32:54;;;;;;;;;6.25;6.25;;;;;22.70;66.64;101244.00;5090940;28;44893;-82
2022/09/05 07:35:28;;;;;;;;;6.50;6.50;;;;;22.66;66.50;101232.44;5090342;28;45360;-82
2022/09/05 07:38:14;;;;;;;;;6.25;5.75;;;;;22.71;66.89;101245.78;5091023;27;45449;-83
2022/09/05 07:40:56;;;;;;;;;6.75;5.25;;;;;22.69;66.49;101239.56;5089676;27;45257;-82
2022/09/05 07:43:29;;;;;;;;;6.25;6.00;;;;;22.74;66.04;101238.63;5094384;27;45012;-83
2022/09/05 07:46:11;;;;;;;;;5.25;5.00;;;;;22.78;66.67;101234.13;5093723;27;45615;-83
2022/09/05 07:48:42;;;;;;;;;7.00;6.00;;;;;22.83;65.55;101233.19;5093883;27;45105;-82
2022/09/05 07:51:20;;;;;;;;;6.00;6.00;;;;;22.82;64.77;101225.19;5092659;28;44937;-84
2022/09/05 07:53:46;;;;;;;;;7.00;6.00;;;;;22.91;64.81;101214.41;5094020;27;45211;-82
2022/09/05 07:56:14;;;;;;;;;6.50;6.00;;;;;23.02;66.44;101222.34;5091816;27;45520;-82
2022/09/05 07:58:48;;;;;;;;;6.25;6.00;;;;;23.05;66.20;101212.47;5092662;27;45513;-83
2022/09/05 08:01:18;;;;;;;;;6.50;5.50;;;;;23.18;65.36;101214.13;5092674;27;45026;-83
2022/09/05 08:03:44;;;;;;;;;4.25;4.00;;;;;23.30;64.14;101207.78;5093905;27;45079;-84
2022/09/05 08:06:21;;;;;;;;;5.00;4.25;;;;;23.33;63.26;101182.69;5093630;27;46037;-82
2022/09/05 08:08:53;;;;;;;;;7.00;6.00;;;;;23.71;63.39;101213.63;5093671;27;45581;-83
2022/09/05 08:11:23;;;;;;;;;4.00;4.00;;;;;23.88;63.60;101208.91;5093273;28;45149;-83
2022/09/05 08:14:07;;;;;;;;;6.00;6.00;;;;;24.05;63.28;101198.84;5093482;27;45127;-83
2022/09/05 08:16:33;;;;;;;;;7.75;6.00;;;;;24.20;62.68;101198.63;5093022;28;45286;-84
2022/09/05 08:19:39;;;;;;;;;5.50;5.25;;;;;24.43;62.09;101200.09;5093749;27;45145;-84
2022/09/05 08:22:12;;;;;;;;;5.75;5.00;;;;;24.53;62.45;101195.47;5093774;28;45000;-83
2022/09/05 08:25:03;;;;;;;;;5.00;4.25;;;;;24.56;60.20;101192.75;5093659;28;45058;-83
2022/09/05 08:27:44;;;;;;;;;5.00;4.75;;;;;24.57;60.16;101195.41;5093482;27;45123;-83
2022/09/05 08:30:11;;;;;;;;;6.25;5.50;;;;;24.63;59.82;101194.41;5093641;27;45133;-83
2022/09/05 08:32:59;;;;;;;;;5.00;5.00;;;;;24.71;60.41;101198.75;5093472;27;44996;-83
2022/09/05 08:35:51;;;;;;;;;5.00;5.00;;;;;24.88;60.04;101209.25;5093602;27;44979;-84
2022/09/05 08:38:17;;;;;;;;;4.50;4.50;;;;;24.96;58.79;101203.72;5093388;27;45049;-84
2022/09/05 08:40:51;;;;;;;;;5.00;5.00;;;;;25.08;58.41;101199.97;5089450;28;45506;-84
2022/09/05 08:43:32;;;;;;;;;4.25;4.25;;;;;25.10;58.44;101192.75;5093641;27;44999;-84
2022/09/05 08:46:12;;;;;;;;;6.00;4.50;;;;;25.19;59.26;101204.25;5093376;28;45000;-83
2022/09/05 08:49:08;;;;;;;;;5.00;4.75;;;;;25.32;59.23;101214.75;5093459;27;46021;-82
2022/09/05 08:51:42;;;;;;;;;4.75;4.50;;;;;25.36;58.34;101221.88;5092658;27;45130;-82
2022/09/05 08:54:19;;;;;;;;;5.50;5.50;;;;;25.35;57.83;101220.09;5093650;27;45096;-83
2022/09/05 08:57:07;;;;;;;;;5.25;5.25;;;;;25.42;57.62;101230.72;5107705;27;45316;-82
2022/09/05 09:00:04;;;;;;;;;5.25;5.25;;;;;25.45;57.31;101254.88;5092846;27;45200;-82
2022/09/05 09:02:45;;;;;;;;;5.75;5.50;;;;;25.49;57.00;101250.34;5092920;28;45387;-82
2022/09/05 09:05:46;;;;;;;;;6.00;5.00;;;;;25.49;57.85;101234.19;5108427;27;45011;-83
2022/09/05 09:08:12;;;;;;;;;7.75;7.75;;;;;25.48;57.66;101254.84;5091836;27;45124;-83
2022/09/05 09:11:25;;;;;;;;;6.00;6.00;;;;;25.46;57.68;101240.50;5092135;27;45316;-83
2022/09/05 09:14:15;;;;;;;;;7.50;6.00;;;;;25.47;58.27;101222.56;5090834;27;45151;-82
2022/09/05 09:17:00;;;;;;;;;5.00;5.00;;;;;25.63;57.89;101237.50;5092336;27;45053;-82
2022/09/05 09:19:48;;;;;;;;;6.00;6.00;;;;;25.80;57.17;101252.44;5092767;27;45134;-83
2022/09/05 09:22:32;;;;;;;;;5.75;5.75;;;;;25.94;57.96;101244.97;5092352;27;45770;-82
2022/09/05 09:25:15;;;;;;;;;6.25;5.75;;;;;26.06;57.79;101242.03;5092298;28;45005;-83
2022/09/05 09:27:53;;;;;;;;;5.75;5.25;;;;;26.17;56.70;101237.28;5091647;27;45259;-82
2022/09/05 09:30:19;;;;;;;;;5.25;5.25;;;;;26.09;56.56;101217.72;5092687;27;45051;-83
2022/09/05 09:32:47;;;;;;;;;4.00;4.00;;;;;26.13;56.27;101216.72;5092325;27;45196;-82
2022/09/05 09:35:40;;;;;;;;;4.50;4.00;;;;;26.15;55.65;101230.16;5092344;27;45152;-83
2022/09/05 09:38:08;;;;;;;;;5.00;5.00;;;;;26.10;55.96;101218.59;5092383;28;45031;-83
2022/09/05 09:40:49;;;;;;;;;5.00;5.00;;;;;26.13;55.48;101222.13;5091132;27;45035;-83
2022/09/05 09:43:26;;;;;;;;;3.00;3.00;;;;;26.13;54.70;101222.13;5092009;27;45656;-83
2022/09/05 09:46:08;;;;;;;;;3.00;3.00;;;;;26.09;53.93;101212.31;5091902;27;45182;-82
2022/09/05 09:48:46;;;;;;;;;3.00;3.00;;;;;26.12;52.93;101211.38;5092678;28;44980;-82
2022/09/05 09:51:21;;;;;;;;;2.00;2.00;;;;;26.10;52.11;101213.19;5091931;27;45158;-82
2022/09/05 09:53:46;;;;;;;;;3.25;3.00;;;;;26.09;53.08;101214.13;5092116;27;45305;-83
2022/09/05 09:56:53;;;;;;;;;2.33;2.00;;;;;26.02;51.64;101202.63;5091320;28;44962;-83
2022/09/05 09:59:55;;;;;;;;;3.00;3.00;;;;;25.97;51.61;101200.03;5090158;28;44953;-84
2022/09/05 10:02:45;;;;;;;;;3.00;3.00;;;;;25.95;51.65;101193.75;5092201;27;45038;-83
2022/09/05 10:05:29;;;;;;;;;2.50;2.25;;;;;25.93;51.28;101187.53;5107096;27;46057;-83
2022/09/05 10:07:57;;;;;;;;;3.75;3.00;;;;;25.88;51.10;101184.06;5091907;27;44954;-82
2022/09/05 10:10:25;;;;;;;;;2.25;2.25;;;;;25.86;50.93;101174.22;5091271;28;45036;-83
2022/09/05 10:13:15;;;;;;;;;2.00;2.00;;;;;25.85;51.58;101173.34;5107558;27;45058;-82
2022/09/05 10:16:05;;;;;;;;;2.75;2.75;;;;;25.87;51.12;101173.31;5091516;27;45428;-80
2022/09/05 10:18:53;;;;;;;;;3.00;3.00;;;;;25.89;51.22;101174.16;5091617;28;45406;-83
2022/09/05 10:21:47;;;;;;;;;2.25;2.00;;;;;25.93;50.40;101183.97;5092058;28;45178;-83
2022/09/05 10:24:21;;;;;;;;;3.00;2.00;;;;;25.91;49.89;101173.22;5089360;27;45104;-83
2022/09/05 10:27:00;;;;;;;;;2.25;2.25;;;;;25.93;50.58;101171.38;5089907;27;48051;-83
2022/09/05 10:29:54;;;;;;;;;3.75;3.00;;;;;26.05;50.61;101177.41;5092001;27;45370;-83
2022/09/05 10:32:33;;;;;;;;;2.00;2.00;;;;;26.09;50.80;101158.44;5091438;27;44906;-82
2022/09/05 10:35:10;;;;;;;;;2.25;2.25;;;;;26.26;50.14;101166.16;5092126;28;44869;-82
2022/09/05 10:37:47;;;;;;;;;2.75;2.75;;;;;26.31;49.60;101156.16;5091323;27;45517;-82
2022/09/05 10:40:17;;;;;;;;;3.00;3.00;;;;;26.29;49.47;101140.91;5090936;27;45134;-83
2022/09/05 10:42:52;;;;;;;;;2.00;2.00;;;;;26.41;48.91;101151.41;5091351;28;44981;-82
2022/09/05 10:45:56;;;;;;;;;2.00;2.00;;;;;26.45;49.13;101156.72;5090120;27;45054;-82
2022/09/05 10:48:35;;;;;;;;;3.00;3.00;;;;;26.45;49.07;101139.63;5088912;28;45051;-83
2022/09/05 10:51:14;;;;;;;;;3.00;3.00;;;;;26.58;48.61;101151.03;5091270;27;45336;-84
2022/09/05 10:54:09;;;;;;;;;2.00;2.00;;;;;26.53;47.86;101126.88;5090984;27;45017;-83
2022/09/05 10:57:15;;;;;;;;;2.00;2.00;;;;;26.72;47.72;101144.34;5090648;27;45414;-84
2022/09/05 10:59:52;;;;;;;;;2.00;2.00;;;;;26.82;47.67;101144.13;5068877;27;45079;-84
2022/09/05 11:02:22;;;;;;;;;2.00;2.00;;;;;26.91;47.37;101146.56;5091319;27;45341;-82
2022/09/05 11:05:02;;;;;;;;;3.00;3.00;;;;;27.02;46.65;101139.94;5091501;27;45067;-83
2022/09/05 11:07:34;;;;;;;;;2.00;2.00;;;;;27.12;46.60;101143.31;5090924;28;45054;-84
2022/09/05 11:10:16;;;;;;;;;2.00;2.00;;;;;27.14;46.31;101111.81;5089220;28;45786;-84
2022/09/05 11:13:00;;;;;;;;;2.00;2.00;;;;;27.40;45.47;101131.75;5090743;27;45103;-83
2022/09/05 11:15:43;;;;;;;;;2.25;2.25;;;;;27.51;45.71;101129.63;5091719;27;44955;-83
2022/09/05 11:18:18;;;;;;;;;2.00;2.00;;;;;27.61;45.97;101131.13;5094730;28;45016;-84
2022/09/05 11:20:58;;;;;;;;;2.00;2.00;;;;;27.66;45.06;101125.56;5094015;27;45969;-85
2022/09/05 11:23:38;;;;;;;;;5.50;5.50;;;;;27.69;44.41;101115.56;5094525;27;45499;-83
2022/09/05 11:26:16;;;;;;;;;2.00;1.50;;;;;27.84;44.75;101129.59;5094102;27;44985;-83
2022/09/05 11:28:50;;;;;;;;;1.50;1.50;;;;;27.86;43.65;101125.00;5094677;27;45111;-83
2022/09/05 11:31:20;;;;;;;;;0.00;0.00;;;;;27.72;43.78;101095.72;5093862;27;46836;-82
2022/09/05 11:34:24;;;;;;;;;1.25;1.25;;;;;27.88;44.18;101123.13;5094557;27;45483;-82
2022/09/05 11:36:54;;;;;;;;;2.00;2.00;;;;;27.72;43.98;101088.47;5094320;27;44913;-82
2022/09/05 11:39:32;;;;;;;;;1.75;1.75;;;;;27.88;43.73;101112.31;5094587;27;45279;-82
2022/09/05 11:42:22;;;;;;;;;2.00;2.00;;;;;27.86;43.04;101106.09;5093581;27;45875;-83
2022/09/05 11:45:07;;;;;;;;;1.00;1.00;;;;;27.89;43.40;101104.19;5094258;27;45556;-82
2022/09/05 11:48:07;;;;;;;;;2.00;2.00;;;;;27.93;42.74;101104.94;5094125;27;45047;-82
2022/09/05 11:50:57;;;;;;;;;2.00;2.00;;;;;27.98;43.41;101093.09;5093958;27;45039;-83
2022/09/05 11:53:40;;;;;;;;;2.00;2.00;;;;;28.05;43.50;101099.16;5094182;27;45654;-83
2022/09/05 11:57:09;;;;;;;;;1.50;1.50;;;;;28.12;42.91;101094.44;5093331;28;45500;-82
2022/09/05 12:00:07;;;;;;;;;0.75;0.75;;;;;28.18;42.33;101096.97;5091416;28;45239;-83
2022/09/05 12:02:48;;;;;;;;;2.50;2.50;;;;;28.21;42.64;101080.63;5087100;28;45200;-83
2022/09/05 12:05:51;;;;;;;;;2.00;2.00;;;;;28.28;42.52;101061.47;5094000;27;45269;-82
2022/09/05 12:08:39;;;;;;;;;1.25;1.25;;;;;28.38;42.56;101061.19;5093943;28;45335;-82
2022/09/05 12:11:38;;;;;;;;;1.75;1.75;;;;;28.44;42.27;101059.16;5091696;28;45362;-84
2022/09/05 12:14:29;;;;;;;;;2.00;2.00;;;;;28.54;42.49;101066.00;5093762;27;44996;-83
2022/09/05 12:17:16;;;;;;;;;2.25;1.75;;;;;28.58;42.13;101047.84;5092970;27;45662;-83
2022/09/05 12:20:06;;;;;;;;;2.00;2.00;;;;;28.71;41.84;101054.56;5093454;27;45103;-83
2022/09/05 12:22:35;;;;;;;;;1.50;1.50;;;;;28.83;41.63;101042.44;5093374;27;45005;-82
2022/09/05 12:25:32;;;;;;;;;2.25;2.00;;;;;29.02;41.79;101042.69;5093191;27;44931;-82
2022/09/05 12:28:06;;;;;;;;;2.00;2.00;;;;;29.24;40.82;101035.50;5108853;27;45971;-83
2022/09/05 12:30:38;;;;;;;;;3.00;3.00;;;;;29.39;41.21;101014.19;5093274;27;45015;-84
2022/09/05 12:33:12;;;;;;;;;3.00;3.00;;;;;29.71;41.47;101027.41;5093708;27;45158;-83
2022/09/05 12:35:43;;;;;;;;;2.50;2.50;;;;;29.95;40.78;101005.63;5091972;27;45107;-84